Terminal Aerodrome Forecast
Issued by NWS Jackson, MS

Home | Current Version | Previous Version | Text Only | Print | Product List | Glossary On
Versions: 1 2 3 4 5 6 7 8 9 10 11 12 13 14 15 16 17 18 19 20 21 22 23 24 25 26 27 28 29 30 31 32 33 34 35 36
063
FTUS44 KJAN 101736
TAFGLH
TAF
KGLH 101736Z 1018/1118 01018G24KT 6SM -RA BR OVC040
      TEMPO 1018/1019 5SM -RA BR BKN007
     FM102300 02009KT 4SM -SN BR OVC007
     FM110300 01009KT P6SM OVC015
     FM110500 02005KT P6SM BKN250=

USA.gov is the U.S. government's official web portal to all federal, state and local government web resources and services.